Terminal Aerodrome Forecast
Issued by NWS

Home | Current Version | Previous Version | Text Only | Print | Product List | Glossary Off
Versions: 1 2 3 4 5 6 7 8 9 10 11 12

000
FTUS43 KMPX 111700
TAFAXN
TAF
KAXN 111734Z 1118/1218 21007KT P6SM SCT020
     FM112130 27007KT P6SM BKN035
     FM120300 34004KT P6SM SCT040
     FM121400 35006KT P6SM BKN070
      TEMPO 1215/1217 5SM -SHRA BKN040 OVC070=

USA.gov is the U.S. government's official web portal to all federal, state and local government web resources and services.